CONTEST STATUS - Updated: SAT ... 14-APR-18 @ 9 PM EDT

Winter '17 / '18 - Snowfall Forecast Contests

19th Annual 'Regular Season' Snowfall Forecast Contest
- FINAL Results here
1st Place: Brad Yehl
2nd Place: Don Sutherland
3rd Place: NWS ER WFOs
HM: Herb @MAWS

17th Annual 'Season-total' Snowfall Forecast Contest
- FINAL Results here
1st Place: Don Sutherland
2nd Place: Mitchel Volk
3rd Place: Brad Yehl
HM: TQ
Climo: 5th place

----------------------------------------------------
Winter '16 / '17 - Snowfall Forecast Contests
----------------------------------------------------
18th Annual 'Regular Season'
FINAL results here

---
16th Annual 'Season-total'
FINAL results here

Friday, December 30, 2016

Winter '16 / '17 - Snow Storm #1: TSSN


On-set of convection heralded the change from liquid to frozen precipitation.
---
KBED 300112Z 32011G19KT 1SM R11/6000VP6000FT -TSSN BR VV004 01/M01 A2941
RMK AO2 LTG DSNT SE AND S TSB06 P0001 T00061011

KBOS 300119Z 31015G25KT 3SM -TSSNGS SCT006 OVC015 01/01 A2938
RMK AO2 PK WND 32028/0056 RAE07SNB01GSB13 TSB10 LTGICCC W TS W MOV E P0007 T00110006

KPWM 300251Z 33013KT 1/2SM +TSSN FEW004 OVC010 M02/M02 A2929
RMK AO2 WSHFT 0154 RAE17SNB17 TSB49 PRESFR SLP918 LTGIC P0024 60079 I1002 I3002

K1P1 300255Z AUTO 00000KT 2 1/2SM -VCTSSN M03/M03 A2936 RMK AO2 P0001 60003 T10281031

No comments: